QTR378 UZTT-OTHH
Flight info
| Callsign | QTR378 |
|---|---|
| Flight time | 5h 7m |
| Altitude | 36000 |
| Route | K0837F360 BAMGU2C BAMGU L141 EKVIT L170 MOSOM A114 OLRAM L148 AMDAR/N0451F360 M875 SITAX A466 SAJAN G325 ZB J133 PARLO G325 PG T385 TAPDO G652 TOKRA DCT 21N053E 21N051E DCT DEMTA DCT LAEEB LAEEB1J |
| Aircraft | A320/M-SDE3FGHIRWY/LB1 |
Departure
| Time | 2026-05-07 20:14 |
|---|---|
| Airport | Tashkent International Airport (UZTT) |
Arrival
| Time | 2026-05-08 01:22 |
|---|---|
| Airport | Hamad International Airport (OTHH) |
| Time | Latitude | Longitude | Altitude | Speed | Heading |
|---|---|---|---|---|---|
| 2026-05-07 19:27 | 41.26107 | 69.26697 | 1378 ft | 0 kts | 315° |
| 2026-05-07 20:01 | 41.26100 | 69.26705 | 1377 ft | 4 kts | 315° |
| 2026-05-07 20:02 | 41.26081 | 69.26730 | 1379 ft | 4 kts | 314° |
| 2026-05-07 20:02 | 41.26062 | 69.26756 | 1379 ft | 4 kts | 314° |
| 2026-05-07 20:02 | 41.26047 | 69.26778 | 1379 ft | 3 kts | 313° |
| 2026-05-07 20:02 | 41.26033 | 69.26806 | 1381 ft | 4 kts | 279° |
| 2026-05-07 20:03 | 41.26034 | 69.26838 | 1382 ft | 2 kts | 246° |
| 2026-05-07 20:03 | 41.26035 | 69.26839 | 1382 ft | 0 kts | 246° |
| 2026-05-07 20:06 | 41.26034 | 69.26837 | 1382 ft | 1 kts | 246° |
| 2026-05-07 20:06 | 41.26029 | 69.26821 | 1381 ft | 3 kts | 246° |
| 2026-05-07 20:06 | 41.26018 | 69.26790 | 1381 ft | 5 kts | 246° |
| 2026-05-07 20:07 | 41.26009 | 69.26761 | 1382 ft | 6 kts | 246° |
| 2026-05-07 20:07 | 41.25990 | 69.26706 | 1382 ft | 7 kts | 246° |
| 2026-05-07 20:07 | 41.25967 | 69.26638 | 1382 ft | 9 kts | 246° |
| 2026-05-07 20:07 | 41.25942 | 69.26558 | 1380 ft | 10 kts | 247° |
| 2026-05-07 20:08 | 41.25905 | 69.26474 | 1381 ft | 11 kts | 227° |
| 2026-05-07 20:08 | 41.25847 | 69.26412 | 1386 ft | 10 kts | 218° |
| 2026-05-07 20:08 | 41.25824 | 69.26387 | 1387 ft | 0 kts | 219° |
| 2026-05-07 20:11 | 41.25818 | 69.26381 | 1387 ft | 2 kts | 219° |
| 2026-05-07 20:11 | 41.25800 | 69.26362 | 1388 ft | 4 kts | 213° |
| 2026-05-07 20:11 | 41.25771 | 69.26351 | 1386 ft | 4 kts | 184° |
| 2026-05-07 20:12 | 41.25747 | 69.26355 | 1401 ft | 3 kts | 168° |
| 2026-05-07 20:12 | 41.25734 | 69.26361 | 1402 ft | 2 kts | 159° |
| 2026-05-07 20:12 | 41.25719 | 69.26373 | 1400 ft | 3 kts | 146° |
| 2026-05-07 20:12 | 41.25693 | 69.26405 | 1403 ft | 7 kts | 130° |
| 2026-05-07 20:13 | 41.25668 | 69.26479 | 1397 ft | 9 kts | 98° |
| 2026-05-07 20:13 | 41.25675 | 69.26573 | 1402 ft | 11 kts | 82° |
| 2026-05-07 20:13 | 41.25693 | 69.26730 | 1401 ft | 38 kts | 82° |
| 2026-05-07 20:13 | 41.25764 | 69.27373 | 1402 ft | 100 kts | 81° |
| 2026-05-07 20:14 | 41.25888 | 69.28507 | 1396 ft | 146 kts | 81° |
| 2026-05-07 20:14 | 41.26049 | 69.30006 | 1514 ft | 174 kts | 82° |
| 2026-05-07 20:14 | 41.26233 | 69.31627 | 2006 ft | 182 kts | 81° |
| 2026-05-07 20:14 | 41.26408 | 69.33312 | 2577 ft | 188 kts | 82° |
| 2026-05-07 20:15 | 41.26583 | 69.35085 | 2952 ft | 197 kts | 82° |
| 2026-05-07 20:15 | 41.26764 | 69.36916 | 3388 ft | 202 kts | 82° |
| 2026-05-07 20:15 | 41.26961 | 69.38813 | 3685 ft | 213 kts | 82° |
| 2026-05-07 20:15 | 41.27187 | 69.40783 | 4108 ft | 217 kts | 81° |
| 2026-05-07 20:16 | 41.27418 | 69.42778 | 4589 ft | 220 kts | 82° |
| 2026-05-07 20:16 | 41.27647 | 69.44799 | 5087 ft | 222 kts | 82° |
| 2026-05-07 20:16 | 41.27875 | 69.46833 | 5598 ft | 223 kts | 82° |
| 2026-05-07 20:16 | 41.28103 | 69.48885 | 6092 ft | 225 kts | 82° |
| 2026-05-07 20:17 | 41.28317 | 69.50951 | 6581 ft | 227 kts | 86° |
| 2026-05-07 20:17 | 41.28006 | 69.52984 | 7029 ft | 229 kts | 121° |
| 2026-05-07 20:17 | 41.26867 | 69.54421 | 7478 ft | 230 kts | 156° |
| 2026-05-07 20:17 | 41.25314 | 69.54917 | 7942 ft | 231 kts | 171° |
| 2026-05-07 20:18 | 41.23715 | 69.55224 | 8407 ft | 233 kts | 172° |
| 2026-05-07 20:18 | 41.22104 | 69.55520 | 8858 ft | 235 kts | 172° |
| 2026-05-07 20:18 | 41.20472 | 69.55617 | 9279 ft | 237 kts | 192° |
| 2026-05-07 20:18 | 41.19021 | 69.54630 | 9695 ft | 239 kts | 225° |
| 2026-05-07 20:19 | 41.18191 | 69.52666 | 9829 ft | 256 kts | 259° |
| 2026-05-07 20:19 | 41.17907 | 69.50231 | 9972 ft | 278 kts | 262° |
| 2026-05-07 20:19 | 41.17636 | 69.47621 | 10108 ft | 300 kts | 262° |
| 2026-05-07 20:19 | 41.17343 | 69.44745 | 10241 ft | 320 kts | 262° |
| 2026-05-07 20:20 | 41.17030 | 69.41729 | 10369 ft | 339 kts | 262° |
| 2026-05-07 20:20 | 41.16691 | 69.38567 | 10671 ft | 350 kts | 262° |
| 2026-05-07 20:20 | 41.16335 | 69.35352 | 11197 ft | 354 kts | 261° |
| 2026-05-07 20:20 | 41.15970 | 69.32105 | 11805 ft | 356 kts | 261° |
| 2026-05-07 20:21 | 41.15603 | 69.28850 | 12436 ft | 358 kts | 261° |
| 2026-05-07 20:21 | 41.15236 | 69.25583 | 13061 ft | 359 kts | 262° |
| 2026-05-07 20:21 | 41.14866 | 69.22291 | 13663 ft | 361 kts | 262° |
| 2026-05-07 20:21 | 41.14485 | 69.18986 | 14238 ft | 364 kts | 259° |
| 2026-05-07 20:22 | 41.13612 | 69.15831 | 14772 ft | 368 kts | 239° |
| 2026-05-07 20:22 | 41.11915 | 69.13302 | 15311 ft | 372 kts | 217° |
| 2026-05-07 20:22 | 41.09629 | 69.11781 | 15810 ft | 377 kts | 196° |
| 2026-05-07 20:22 | 41.06982 | 69.11478 | 16327 ft | 382 kts | 175° |
| 2026-05-07 20:23 | 41.04365 | 69.11927 | 16843 ft | 385 kts | 173° |
| 2026-05-07 20:23 | 41.01668 | 69.12434 | 17369 ft | 388 kts | 173° |
| 2026-05-07 20:23 | 40.98980 | 69.12949 | 17884 ft | 391 kts | 173° |
| 2026-05-07 20:23 | 40.96275 | 69.13410 | 18391 ft | 394 kts | 178° |
| 2026-05-07 20:24 | 40.93534 | 69.13291 | 18897 ft | 395 kts | 189° |
| 2026-05-07 20:24 | 40.90863 | 69.12450 | 19404 ft | 396 kts | 201° |
| 2026-05-07 20:24 | 40.88363 | 69.10922 | 19905 ft | 397 kts | 212° |
| 2026-05-07 20:24 | 40.86027 | 69.08958 | 20406 ft | 400 kts | 214° |
| 2026-05-07 20:25 | 40.83675 | 69.06966 | 20896 ft | 403 kts | 214° |
| 2026-05-07 20:25 | 40.81309 | 69.04972 | 21360 ft | 405 kts | 214° |
| 2026-05-07 20:25 | 40.78924 | 69.02956 | 21797 ft | 408 kts | 216° |
| 2026-05-07 20:25 | 40.76719 | 69.00616 | 22198 ft | 409 kts | 225° |
| 2026-05-07 20:26 | 40.74655 | 68.98008 | 22620 ft | 411 kts | 225° |
| 2026-05-07 20:26 | 40.72581 | 68.95402 | 23029 ft | 414 kts | 225° |
| 2026-05-07 20:26 | 40.70484 | 68.92782 | 23415 ft | 416 kts | 225° |
| 2026-05-07 20:26 | 40.68406 | 68.90191 | 23786 ft | 418 kts | 225° |
| 2026-05-07 20:27 | 40.66256 | 68.87509 | 24170 ft | 421 kts | 225° |
| 2026-05-07 20:27 | 40.64155 | 68.84889 | 24533 ft | 423 kts | 225° |
| 2026-05-07 20:27 | 40.61982 | 68.82182 | 24894 ft | 425 kts | 225° |
| 2026-05-07 20:27 | 40.59878 | 68.79518 | 25234 ft | 426 kts | 229° |
| 2026-05-07 20:28 | 40.58032 | 68.76483 | 25576 ft | 426 kts | 238° |
| 2026-05-07 20:28 | 40.56604 | 68.73075 | 25900 ft | 425 kts | 248° |
| 2026-05-07 20:28 | 40.55582 | 68.69428 | 26221 ft | 426 kts | 252° |
| 2026-05-07 20:28 | 40.54615 | 68.65727 | 26542 ft | 428 kts | 252° |
| 2026-05-07 20:29 | 40.53485 | 68.62098 | 26836 ft | 432 kts | 243° |
| 2026-05-07 20:29 | 40.51814 | 68.58798 | 27124 ft | 436 kts | 231° |
| 2026-05-07 20:29 | 40.49654 | 68.55988 | 27406 ft | 440 kts | 220° |
| 2026-05-07 20:29 | 40.47093 | 68.53771 | 27689 ft | 444 kts | 208° |
| 2026-05-07 20:30 | 40.44212 | 68.52251 | 27999 ft | 447 kts | 199° |
| 2026-05-07 20:30 | 40.41238 | 68.51036 | 28404 ft | 446 kts | 199° |
| 2026-05-07 20:30 | 40.38281 | 68.49829 | 28807 ft | 445 kts | 199° |
| 2026-05-07 20:30 | 40.35326 | 68.48619 | 29191 ft | 444 kts | 199° |
| 2026-05-07 20:31 | 40.32386 | 68.47410 | 29578 ft | 443 kts | 199° |
| 2026-05-07 20:31 | 40.29447 | 68.46200 | 29959 ft | 442 kts | 199° |
| 2026-05-07 20:31 | 40.26521 | 68.44996 | 30340 ft | 441 kts | 199° |
| 2026-05-07 20:31 | 40.23596 | 68.43796 | 30723 ft | 439 kts | 199° |
| 2026-05-07 20:32 | 40.20687 | 68.42606 | 31110 ft | 438 kts | 199° |
| 2026-05-07 20:32 | 40.17782 | 68.41420 | 31494 ft | 436 kts | 199° |
| 2026-05-07 20:32 | 40.14894 | 68.40240 | 31875 ft | 435 kts | 199° |
| 2026-05-07 20:32 | 40.12013 | 68.39060 | 32255 ft | 433 kts | 199° |
| 2026-05-07 20:33 | 40.09150 | 68.37886 | 32640 ft | 431 kts | 199° |
| 2026-05-07 20:33 | 40.06290 | 68.36719 | 33014 ft | 429 kts | 199° |
| 2026-05-07 20:33 | 40.03447 | 68.35564 | 33383 ft | 428 kts | 199° |
| 2026-05-07 20:33 | 40.00615 | 68.34416 | 33742 ft | 426 kts | 199° |
| 2026-05-07 20:34 | 39.97788 | 68.33272 | 34077 ft | 424 kts | 199° |
| 2026-05-07 20:34 | 39.94978 | 68.32132 | 34384 ft | 423 kts | 199° |
| 2026-05-07 20:34 | 39.92166 | 68.30991 | 34653 ft | 423 kts | 199° |
| 2026-05-07 20:34 | 39.89361 | 68.29853 | 34897 ft | 423 kts | 199° |
| 2026-05-07 20:35 | 39.86552 | 68.28714 | 35137 ft | 422 kts | 199° |
| 2026-05-07 20:35 | 39.83750 | 68.27581 | 35372 ft | 422 kts | 199° |
| 2026-05-07 20:35 | 39.80945 | 68.26447 | 35585 ft | 422 kts | 200° |
| 2026-05-07 20:35 | 39.78140 | 68.25316 | 35797 ft | 422 kts | 200° |
| 2026-05-07 20:36 | 39.75329 | 68.24184 | 35957 ft | 423 kts | 200° |
| 2026-05-07 20:36 | 39.69649 | 68.21890 | 35998 ft | 432 kts | 200° |
| 2026-05-07 20:37 | 39.63845 | 68.19549 | 36000 ft | 441 kts | 200° |
| 2026-05-07 20:37 | 39.57973 | 68.17187 | 35997 ft | 443 kts | 200° |
| 2026-05-07 20:38 | 39.52063 | 68.14913 | 36002 ft | 444 kts | 198° |
| 2026-05-07 20:38 | 39.46094 | 68.12814 | 35992 ft | 445 kts | 197° |
| 2026-05-07 20:39 | 39.40122 | 68.10731 | 36002 ft | 445 kts | 198° |
| 2026-05-07 20:39 | 39.34163 | 68.08612 | 36000 ft | 443 kts | 198° |
| 2026-05-07 20:40 | 39.28197 | 68.06476 | 36005 ft | 445 kts | 198° |
| 2026-05-07 20:40 | 39.22222 | 68.04341 | 36001 ft | 446 kts | 198° |
| 2026-05-07 20:41 | 39.16238 | 68.02210 | 36005 ft | 446 kts | 198° |
| 2026-05-07 20:41 | 39.10243 | 68.00087 | 36009 ft | 447 kts | 198° |
| 2026-05-07 20:42 | 39.04246 | 67.97956 | 36011 ft | 448 kts | 198° |
| 2026-05-07 20:42 | 38.98244 | 67.95751 | 36024 ft | 449 kts | 199° |
| 2026-05-07 20:43 | 38.92264 | 67.93359 | 36048 ft | 450 kts | 200° |
| 2026-05-07 20:43 | 38.86291 | 67.90930 | 36035 ft | 450 kts | 200° |
| 2026-05-07 20:44 | 38.80312 | 67.88560 | 36032 ft | 450 kts | 199° |
| 2026-05-07 20:44 | 38.74330 | 67.86233 | 36030 ft | 450 kts | 199° |
| 2026-05-07 20:45 | 38.68335 | 67.83905 | 36032 ft | 451 kts | 199° |
| 2026-05-07 20:45 | 38.62327 | 67.81612 | 36025 ft | 450 kts | 199° |
| 2026-05-07 20:46 | 38.56326 | 67.79340 | 36020 ft | 450 kts | 199° |
| 2026-05-07 20:46 | 38.50321 | 67.77064 | 36015 ft | 450 kts | 199° |
| 2026-05-07 20:47 | 38.44308 | 67.74787 | 36009 ft | 451 kts | 199° |
| 2026-05-07 20:47 | 38.38290 | 67.72508 | 36005 ft | 451 kts | 199° |
| 2026-05-07 20:48 | 38.32265 | 67.70227 | 36006 ft | 452 kts | 199° |
| 2026-05-07 20:48 | 38.26229 | 67.67951 | 36002 ft | 453 kts | 199° |
| 2026-05-07 20:49 | 38.20182 | 67.65705 | 36003 ft | 453 kts | 198° |
| 2026-05-07 20:49 | 38.15109 | 67.64029 | 36000 ft | 453 kts | 196° |
| 2026-05-07 20:50 | 38.08984 | 67.62145 | 35994 ft | 453 kts | 196° |
| 2026-05-07 20:50 | 38.02852 | 67.60248 | 35984 ft | 453 kts | 197° |
| 2026-05-07 20:51 | 37.96701 | 67.58294 | 35976 ft | 453 kts | 197° |
| 2026-05-07 20:51 | 37.90617 | 67.56344 | 35976 ft | 454 kts | 197° |
| 2026-05-07 20:52 | 37.84495 | 67.54387 | 35968 ft | 454 kts | 197° |
| 2026-05-07 20:52 | 37.78362 | 67.52441 | 35955 ft | 454 kts | 197° |
| 2026-05-07 20:53 | 37.72228 | 67.50499 | 35947 ft | 455 kts | 197° |
| 2026-05-07 20:53 | 37.66092 | 67.48557 | 35942 ft | 455 kts | 197° |
| 2026-05-07 20:54 | 37.59956 | 67.46613 | 35941 ft | 455 kts | 197° |
| 2026-05-07 20:54 | 37.53816 | 67.44681 | 35939 ft | 455 kts | 197° |
| 2026-05-07 20:55 | 37.47669 | 67.42750 | 35935 ft | 455 kts | 197° |
| 2026-05-07 20:55 | 37.41520 | 67.40821 | 35932 ft | 455 kts | 197° |
| 2026-05-07 20:56 | 37.35370 | 67.38889 | 35930 ft | 456 kts | 197° |
| 2026-05-07 20:56 | 37.29208 | 67.36955 | 35932 ft | 457 kts | 197° |
| 2026-05-07 20:57 | 37.22910 | 67.35812 | 35931 ft | 463 kts | 181° |
| 2026-05-07 20:57 | 37.19699 | 67.36274 | 35930 ft | 468 kts | 170° |
| 2026-05-07 20:57 | 37.16576 | 67.37473 | 35928 ft | 471 kts | 159° |
| 2026-05-07 20:58 | 37.10768 | 67.41353 | 35920 ft | 474 kts | 153° |
| 2026-05-07 20:58 | 37.04991 | 67.45356 | 35920 ft | 475 kts | 153° |
| 2026-05-07 20:59 | 36.99199 | 67.49352 | 35924 ft | 476 kts | 153° |
| 2026-05-07 20:59 | 36.93397 | 67.53358 | 35927 ft | 477 kts | 153° |
| 2026-05-07 21:00 | 36.87587 | 67.57370 | 35930 ft | 478 kts | 153° |
| 2026-05-07 21:00 | 36.81767 | 67.61388 | 35932 ft | 478 kts | 153° |
| 2026-05-07 21:01 | 36.75935 | 67.65393 | 35932 ft | 479 kts | 153° |
| 2026-05-07 21:01 | 36.70096 | 67.69400 | 35935 ft | 479 kts | 153° |
| 2026-05-07 21:02 | 36.64259 | 67.73434 | 35934 ft | 480 kts | 153° |
| 2026-05-07 21:02 | 36.58414 | 67.77466 | 35935 ft | 480 kts | 153° |
| 2026-05-07 21:03 | 36.52558 | 67.81483 | 35931 ft | 481 kts | 153° |
| 2026-05-07 21:03 | 36.46708 | 67.85499 | 35928 ft | 481 kts | 153° |
| 2026-05-07 21:04 | 36.40838 | 67.89523 | 35927 ft | 481 kts | 153° |
| 2026-05-07 21:04 | 36.34969 | 67.93524 | 35932 ft | 482 kts | 153° |
| 2026-05-07 21:05 | 36.29084 | 67.97534 | 35928 ft | 482 kts | 153° |
| 2026-05-07 21:05 | 36.23209 | 68.01542 | 35932 ft | 483 kts | 153° |
| 2026-05-07 21:06 | 36.17323 | 68.05549 | 35930 ft | 483 kts | 153° |
| 2026-05-07 21:06 | 36.11436 | 68.09548 | 35932 ft | 483 kts | 154° |
| 2026-05-07 21:07 | 36.05543 | 68.13539 | 35930 ft | 483 kts | 154° |
| 2026-05-07 21:07 | 35.99647 | 68.17525 | 35935 ft | 483 kts | 154° |
| 2026-05-07 21:08 | 35.93748 | 68.21510 | 35933 ft | 483 kts | 154° |
| 2026-05-07 21:08 | 35.87843 | 68.25486 | 35933 ft | 484 kts | 154° |
| 2026-05-07 21:09 | 35.81934 | 68.29464 | 35927 ft | 484 kts | 153° |
| 2026-05-07 21:09 | 35.76010 | 68.33446 | 35909 ft | 486 kts | 153° |
| 2026-05-07 21:10 | 35.70065 | 68.37420 | 35908 ft | 487 kts | 153° |
| 2026-05-07 21:10 | 35.64117 | 68.41414 | 35911 ft | 487 kts | 153° |
| 2026-05-07 21:11 | 35.58161 | 68.45405 | 35919 ft | 488 kts | 153° |
| 2026-05-07 21:11 | 35.49189 | 68.51332 | 35927 ft | 488 kts | 154° |
| 2026-05-07 21:12 | 35.43202 | 68.55282 | 35932 ft | 489 kts | 154° |
| 2026-05-07 21:12 | 35.37215 | 68.59234 | 35932 ft | 489 kts | 154° |
| 2026-05-07 21:13 | 35.31231 | 68.63189 | 35926 ft | 488 kts | 154° |
| 2026-05-07 21:13 | 35.25247 | 68.67128 | 35919 ft | 488 kts | 154° |
| 2026-05-07 21:14 | 35.19258 | 68.71055 | 35914 ft | 488 kts | 154° |
| 2026-05-07 21:14 | 35.13267 | 68.74980 | 35913 ft | 489 kts | 154° |
| 2026-05-07 21:15 | 35.07270 | 68.78908 | 35914 ft | 489 kts | 154° |
| 2026-05-07 21:15 | 35.01271 | 68.82836 | 35914 ft | 490 kts | 154° |
| 2026-05-07 21:16 | 34.95259 | 68.86757 | 35915 ft | 490 kts | 154° |
| 2026-05-07 21:16 | 34.89240 | 68.90673 | 35922 ft | 491 kts | 154° |
| 2026-05-07 21:17 | 34.83216 | 68.94590 | 35927 ft | 491 kts | 154° |
| 2026-05-07 21:17 | 34.77193 | 68.98506 | 35924 ft | 491 kts | 154° |
| 2026-05-07 21:18 | 34.71202 | 69.02392 | 35926 ft | 492 kts | 154° |
| 2026-05-07 21:18 | 34.65163 | 69.06299 | 35929 ft | 492 kts | 154° |
| 2026-05-07 21:19 | 34.59077 | 69.10225 | 35927 ft | 492 kts | 154° |
| 2026-05-07 21:19 | 34.53027 | 69.14118 | 35924 ft | 492 kts | 154° |
| 2026-05-07 21:20 | 34.46971 | 69.17996 | 35919 ft | 492 kts | 155° |
| 2026-05-07 21:20 | 34.40900 | 69.21813 | 35921 ft | 492 kts | 155° |
| 2026-05-07 21:21 | 34.34813 | 69.25616 | 35923 ft | 492 kts | 155° |
| 2026-05-07 21:21 | 34.28736 | 69.29432 | 35916 ft | 492 kts | 155° |
| 2026-05-07 21:22 | 34.22666 | 69.33254 | 35912 ft | 492 kts | 155° |
| 2026-05-07 21:22 | 34.16631 | 69.37049 | 35912 ft | 493 kts | 155° |
| 2026-05-07 21:23 | 34.10545 | 69.40856 | 35909 ft | 493 kts | 155° |
| 2026-05-07 21:23 | 34.04461 | 69.44664 | 35906 ft | 493 kts | 155° |
| 2026-05-07 21:24 | 33.98379 | 69.48485 | 35905 ft | 493 kts | 155° |
| 2026-05-07 21:24 | 33.92279 | 69.52303 | 35891 ft | 494 kts | 155° |
| 2026-05-07 21:25 | 33.86171 | 69.56116 | 35882 ft | 495 kts | 155° |
| 2026-05-07 21:25 | 33.80055 | 69.59928 | 35886 ft | 495 kts | 155° |
| 2026-05-07 21:26 | 33.73893 | 69.63765 | 35888 ft | 495 kts | 155° |
| 2026-05-07 21:26 | 33.67809 | 69.67537 | 35886 ft | 495 kts | 155° |
| 2026-05-07 21:27 | 33.61646 | 69.71357 | 35882 ft | 495 kts | 155° |
| 2026-05-07 21:27 | 33.55532 | 69.75150 | 35881 ft | 495 kts | 155° |
| 2026-05-07 21:28 | 33.49416 | 69.78959 | 35868 ft | 496 kts | 155° |
| 2026-05-07 21:28 | 33.43316 | 69.82837 | 35849 ft | 497 kts | 154° |
| 2026-05-07 21:29 | 33.37213 | 69.86735 | 35852 ft | 497 kts | 154° |
| 2026-05-07 21:29 | 33.31099 | 69.90616 | 35860 ft | 497 kts | 155° |
| 2026-05-07 21:30 | 33.26010 | 69.93826 | 35852 ft | 498 kts | 155° |
| 2026-05-07 21:30 | 33.18890 | 69.98317 | 35857 ft | 498 kts | 155° |
| 2026-05-07 21:31 | 33.12756 | 70.02185 | 35855 ft | 499 kts | 154° |
| 2026-05-07 21:31 | 33.06634 | 70.06086 | 35854 ft | 499 kts | 153° |
| 2026-05-07 21:32 | 33.01610 | 70.09603 | 35858 ft | 500 kts | 150° |
| 2026-05-07 21:32 | 32.95709 | 70.14002 | 35855 ft | 501 kts | 150° |
| 2026-05-07 21:33 | 32.89801 | 70.18378 | 35849 ft | 501 kts | 150° |
| 2026-05-07 21:33 | 32.83842 | 70.22673 | 35839 ft | 501 kts | 151° |
| 2026-05-07 21:34 | 32.77853 | 70.26930 | 35836 ft | 502 kts | 151° |
| 2026-05-07 21:34 | 32.71830 | 70.31130 | 35843 ft | 501 kts | 158° |
| 2026-05-07 21:35 | 32.68595 | 70.32599 | 35842 ft | 495 kts | 169° |
| 2026-05-07 21:35 | 32.65241 | 70.33320 | 35840 ft | 487 kts | 181° |
| 2026-05-07 21:35 | 32.61881 | 70.33281 | 35833 ft | 479 kts | 192° |
| 2026-05-07 21:35 | 32.58647 | 70.32542 | 35827 ft | 470 kts | 203° |
| 2026-05-07 21:36 | 32.52848 | 70.29321 | 35827 ft | 457 kts | 217° |
| 2026-05-07 21:36 | 32.47352 | 70.25483 | 35828 ft | 459 kts | 217° |
| 2026-05-07 21:37 | 32.41828 | 70.21653 | 35830 ft | 460 kts | 217° |
| 2026-05-07 21:37 | 32.36302 | 70.17818 | 35838 ft | 461 kts | 217° |
| 2026-05-07 21:38 | 32.30855 | 70.13937 | 35839 ft | 460 kts | 218° |
| 2026-05-07 21:38 | 32.25407 | 70.09971 | 35841 ft | 460 kts | 219° |
| 2026-05-07 21:39 | 32.19953 | 70.06016 | 35841 ft | 460 kts | 218° |
| 2026-05-07 21:39 | 32.14483 | 70.02081 | 35840 ft | 460 kts | 218° |
| 2026-05-07 21:40 | 32.09008 | 69.98164 | 35833 ft | 460 kts | 218° |
| 2026-05-07 21:40 | 32.03537 | 69.94244 | 35827 ft | 460 kts | 218° |
| 2026-05-07 21:41 | 31.98065 | 69.90322 | 35820 ft | 460 kts | 218° |
| 2026-05-07 21:41 | 31.92561 | 69.86392 | 35820 ft | 460 kts | 218° |
| 2026-05-07 21:42 | 31.87081 | 69.82479 | 35820 ft | 460 kts | 218° |
| 2026-05-07 21:42 | 31.81612 | 69.78575 | 35816 ft | 460 kts | 218° |
| 2026-05-07 21:43 | 31.76178 | 69.74706 | 35816 ft | 460 kts | 218° |
| 2026-05-07 21:43 | 31.70695 | 69.70818 | 35818 ft | 461 kts | 218° |
| 2026-05-07 21:44 | 31.65210 | 69.66929 | 35816 ft | 460 kts | 218° |
| 2026-05-07 21:44 | 31.59729 | 69.63041 | 35815 ft | 460 kts | 218° |
| 2026-05-07 21:45 | 31.54252 | 69.59155 | 35817 ft | 460 kts | 218° |
| 2026-05-07 21:45 | 31.48773 | 69.55277 | 35819 ft | 460 kts | 218° |
| 2026-05-07 21:46 | 31.43292 | 69.51411 | 35815 ft | 460 kts | 219° |
| 2026-05-07 21:46 | 31.37811 | 69.47547 | 35813 ft | 459 kts | 220° |
| 2026-05-07 21:47 | 31.33081 | 69.42802 | 35812 ft | 442 kts | 235° |
| 2026-05-07 21:47 | 31.28937 | 69.37496 | 35809 ft | 442 kts | 235° |
| 2026-05-07 21:48 | 31.24783 | 69.32203 | 35807 ft | 442 kts | 235° |
| 2026-05-07 21:48 | 31.20626 | 69.26915 | 35810 ft | 442 kts | 235° |
| 2026-05-07 21:49 | 31.16459 | 69.21630 | 35811 ft | 442 kts | 235° |
| 2026-05-07 21:49 | 31.12291 | 69.16349 | 35807 ft | 442 kts | 235° |
| 2026-05-07 21:50 | 31.08093 | 69.11038 | 35807 ft | 442 kts | 235° |
| 2026-05-07 21:50 | 31.03928 | 69.05768 | 35808 ft | 442 kts | 235° |
| 2026-05-07 21:51 | 30.99761 | 69.00512 | 35814 ft | 442 kts | 235° |
| 2026-05-07 21:51 | 30.95599 | 68.95262 | 35805 ft | 440 kts | 235° |
| 2026-05-07 21:52 | 30.91446 | 68.90021 | 35806 ft | 440 kts | 235° |
| 2026-05-07 21:52 | 30.87286 | 68.84780 | 35809 ft | 441 kts | 235° |
| 2026-05-07 21:53 | 30.83120 | 68.79548 | 35813 ft | 441 kts | 235° |
| 2026-05-07 21:53 | 30.78939 | 68.74316 | 35815 ft | 441 kts | 235° |
| 2026-05-07 21:54 | 30.74770 | 68.69105 | 35816 ft | 440 kts | 235° |
| 2026-05-07 21:54 | 30.70606 | 68.63890 | 35811 ft | 440 kts | 235° |
| 2026-05-07 21:55 | 30.66442 | 68.58680 | 35808 ft | 440 kts | 235° |
| 2026-05-07 21:55 | 30.62278 | 68.53480 | 35806 ft | 439 kts | 235° |
| 2026-05-07 21:56 | 30.58108 | 68.48294 | 35805 ft | 439 kts | 235° |
| 2026-05-07 21:56 | 30.53964 | 68.43149 | 35804 ft | 439 kts | 235° |
| 2026-05-07 21:57 | 30.49795 | 68.37971 | 35805 ft | 439 kts | 235° |
| 2026-05-07 21:57 | 30.45635 | 68.32803 | 35804 ft | 438 kts | 235° |
| 2026-05-07 21:58 | 30.41471 | 68.27646 | 35801 ft | 438 kts | 235° |
| 2026-05-07 21:58 | 30.37309 | 68.22495 | 35799 ft | 438 kts | 235° |
| 2026-05-07 21:59 | 30.33150 | 68.17350 | 35797 ft | 437 kts | 235° |
| 2026-05-07 21:59 | 30.28990 | 68.12219 | 35797 ft | 437 kts | 235° |
| 2026-05-07 22:00 | 30.24836 | 68.07092 | 35797 ft | 437 kts | 235° |
| 2026-05-07 22:00 | 30.20681 | 68.01972 | 35794 ft | 436 kts | 235° |
| 2026-05-07 22:01 | 30.16518 | 67.96867 | 35791 ft | 437 kts | 235° |
| 2026-05-07 22:01 | 30.12359 | 67.91758 | 35785 ft | 436 kts | 235° |
| 2026-05-07 22:02 | 30.08203 | 67.86655 | 35786 ft | 436 kts | 235° |
| 2026-05-07 22:02 | 30.04037 | 67.81509 | 35789 ft | 435 kts | 235° |
| 2026-05-07 22:03 | 29.99911 | 67.76393 | 35789 ft | 435 kts | 235° |
| 2026-05-07 22:03 | 29.95786 | 67.71282 | 35784 ft | 436 kts | 235° |
| 2026-05-07 22:04 | 29.91649 | 67.66168 | 35788 ft | 435 kts | 235° |
| 2026-05-07 22:04 | 29.87543 | 67.61114 | 35788 ft | 435 kts | 235° |
| 2026-05-07 22:05 | 29.83382 | 67.55995 | 35793 ft | 435 kts | 235° |
| 2026-05-07 22:05 | 29.79250 | 67.50908 | 35792 ft | 435 kts | 235° |
| 2026-05-07 22:06 | 29.75108 | 67.45838 | 35796 ft | 435 kts | 235° |
| 2026-05-07 22:06 | 29.70975 | 67.40766 | 35796 ft | 434 kts | 235° |
| 2026-05-07 22:07 | 29.66855 | 67.35685 | 35799 ft | 434 kts | 235° |
| 2026-05-07 22:07 | 29.62738 | 67.30609 | 35797 ft | 434 kts | 235° |
| 2026-05-07 22:08 | 29.58616 | 67.25548 | 35798 ft | 434 kts | 235° |
| 2026-05-07 22:08 | 29.54495 | 67.20505 | 35791 ft | 433 kts | 235° |
| 2026-05-07 22:09 | 29.50370 | 67.15456 | 35795 ft | 434 kts | 235° |
| 2026-05-07 22:09 | 29.46247 | 67.10414 | 35796 ft | 433 kts | 234° |
| 2026-05-07 22:10 | 29.42121 | 67.05381 | 35791 ft | 432 kts | 234° |
| 2026-05-07 22:10 | 29.38028 | 67.00388 | 35793 ft | 432 kts | 234° |
| 2026-05-07 22:11 | 29.33908 | 66.95372 | 35792 ft | 432 kts | 234° |
| 2026-05-07 22:11 | 29.29782 | 66.90361 | 35793 ft | 432 kts | 234° |
| 2026-05-07 22:12 | 29.25660 | 66.85355 | 35801 ft | 432 kts | 234° |
| 2026-05-07 22:12 | 29.22205 | 66.81162 | 35798 ft | 432 kts | 234° |
| 2026-05-07 22:13 | 29.18081 | 66.76162 | 35799 ft | 432 kts | 234° |
| 2026-05-07 22:13 | 29.13965 | 66.71168 | 35802 ft | 432 kts | 234° |
| 2026-05-07 22:14 | 29.09839 | 66.66185 | 35797 ft | 431 kts | 234° |
| 2026-05-07 22:14 | 29.05709 | 66.61207 | 35800 ft | 432 kts | 234° |
| 2026-05-07 22:15 | 29.01579 | 66.56227 | 35799 ft | 432 kts | 234° |
| 2026-05-07 22:15 | 28.97463 | 66.51240 | 35801 ft | 431 kts | 234° |
| 2026-05-07 22:16 | 28.93350 | 66.46254 | 35799 ft | 431 kts | 234° |
| 2026-05-07 22:16 | 28.89231 | 66.41274 | 35802 ft | 431 kts | 234° |
| 2026-05-07 22:17 | 28.85107 | 66.36300 | 35804 ft | 431 kts | 234° |
| 2026-05-07 22:17 | 28.80987 | 66.31337 | 35803 ft | 431 kts | 234° |
| 2026-05-07 22:18 | 28.74807 | 66.23906 | 35802 ft | 431 kts | 234° |
| 2026-05-07 22:19 | 28.70680 | 66.18954 | 35815 ft | 431 kts | 234° |
| 2026-05-07 22:19 | 28.66554 | 66.14007 | 35839 ft | 431 kts | 234° |
| 2026-05-07 22:20 | 28.62423 | 66.09064 | 35842 ft | 431 kts | 233° |
| 2026-05-07 22:20 | 28.58291 | 66.04125 | 35849 ft | 431 kts | 233° |
| 2026-05-07 22:21 | 28.54161 | 65.99189 | 35867 ft | 430 kts | 233° |
| 2026-05-07 22:21 | 28.50044 | 65.94261 | 35864 ft | 429 kts | 233° |
| 2026-05-07 22:22 | 28.45919 | 65.89349 | 35863 ft | 430 kts | 233° |
| 2026-05-07 22:22 | 28.41790 | 65.84442 | 35868 ft | 429 kts | 233° |
| 2026-05-07 22:23 | 28.37661 | 65.79538 | 35862 ft | 429 kts | 233° |
| 2026-05-07 22:23 | 28.33543 | 65.74636 | 35855 ft | 429 kts | 233° |
| 2026-05-07 22:24 | 28.29425 | 65.69733 | 35855 ft | 429 kts | 233° |
| 2026-05-07 22:24 | 28.25293 | 65.64845 | 35861 ft | 430 kts | 233° |
| 2026-05-07 22:25 | 28.21151 | 65.59949 | 35867 ft | 430 kts | 233° |
| 2026-05-07 22:25 | 28.17010 | 65.55053 | 35872 ft | 430 kts | 233° |
| 2026-05-07 22:26 | 28.12860 | 65.50161 | 35867 ft | 430 kts | 233° |
| 2026-05-07 22:26 | 28.08709 | 65.45268 | 35881 ft | 431 kts | 233° |
| 2026-05-07 22:27 | 28.04559 | 65.40386 | 35869 ft | 430 kts | 233° |
| 2026-05-07 22:27 | 28.00408 | 65.35503 | 35881 ft | 430 kts | 233° |
| 2026-05-07 22:28 | 27.96262 | 65.30618 | 35874 ft | 431 kts | 233° |
| 2026-05-07 22:28 | 27.92107 | 65.25739 | 35877 ft | 431 kts | 232° |
| 2026-05-07 22:29 | 27.87938 | 65.20855 | 35870 ft | 432 kts | 232° |
| 2026-05-07 22:29 | 27.83764 | 65.15973 | 35870 ft | 432 kts | 232° |
| 2026-05-07 22:30 | 27.79589 | 65.11096 | 35872 ft | 432 kts | 232° |
| 2026-05-07 22:30 | 27.75418 | 65.06215 | 35876 ft | 432 kts | 232° |
| 2026-05-07 22:31 | 27.71244 | 65.01340 | 35864 ft | 432 kts | 232° |
| 2026-05-07 22:31 | 27.67061 | 64.96475 | 35860 ft | 432 kts | 232° |
| 2026-05-07 22:32 | 27.62879 | 64.91612 | 35872 ft | 432 kts | 232° |
| 2026-05-07 22:32 | 27.58701 | 64.86745 | 35875 ft | 432 kts | 232° |
| 2026-05-07 22:33 | 27.54511 | 64.81878 | 35869 ft | 432 kts | 232° |
| 2026-05-07 22:33 | 27.50322 | 64.77019 | 35881 ft | 433 kts | 232° |
| 2026-05-07 22:34 | 27.46127 | 64.72161 | 35882 ft | 433 kts | 232° |
| 2026-05-07 22:34 | 27.41927 | 64.67310 | 35881 ft | 433 kts | 232° |
| 2026-05-07 22:35 | 27.37726 | 64.62459 | 35880 ft | 433 kts | 232° |
| 2026-05-07 22:35 | 27.33519 | 64.57597 | 35883 ft | 433 kts | 232° |
| 2026-05-07 22:36 | 27.29315 | 64.52748 | 35885 ft | 433 kts | 232° |
| 2026-05-07 22:36 | 27.25106 | 64.47902 | 35885 ft | 433 kts | 231° |
| 2026-05-07 22:37 | 27.20895 | 64.43058 | 35863 ft | 433 kts | 231° |
| 2026-05-07 22:37 | 27.16694 | 64.38222 | 35813 ft | 432 kts | 231° |
| 2026-05-07 22:38 | 27.12486 | 64.33399 | 35805 ft | 433 kts | 231° |
| 2026-05-07 22:38 | 27.08274 | 64.28572 | 35805 ft | 433 kts | 231° |
| 2026-05-07 22:39 | 27.04058 | 64.23741 | 35809 ft | 433 kts | 231° |
| 2026-05-07 22:39 | 26.99839 | 64.18908 | 35812 ft | 434 kts | 231° |
| 2026-05-07 22:40 | 26.95612 | 64.14076 | 35812 ft | 434 kts | 231° |
| 2026-05-07 22:40 | 26.91370 | 64.09258 | 35813 ft | 434 kts | 231° |
| 2026-05-07 22:41 | 26.87104 | 64.04457 | 35814 ft | 435 kts | 231° |
| 2026-05-07 22:41 | 26.82835 | 63.99651 | 35816 ft | 436 kts | 231° |
| 2026-05-07 22:42 | 26.78564 | 63.94840 | 35815 ft | 436 kts | 230° |
| 2026-05-07 22:42 | 26.74296 | 63.90028 | 35815 ft | 436 kts | 230° |
| 2026-05-07 22:43 | 26.70022 | 63.85214 | 35815 ft | 436 kts | 230° |
| 2026-05-07 22:43 | 26.65743 | 63.80410 | 35814 ft | 436 kts | 230° |
| 2026-05-07 22:44 | 26.61487 | 63.75634 | 35817 ft | 437 kts | 230° |
| 2026-05-07 22:44 | 26.57172 | 63.70789 | 35816 ft | 437 kts | 230° |
| 2026-05-07 22:45 | 26.52908 | 63.66014 | 35818 ft | 437 kts | 230° |
| 2026-05-07 22:45 | 26.48609 | 63.61212 | 35822 ft | 437 kts | 230° |
| 2026-05-07 22:46 | 26.44305 | 63.56411 | 35825 ft | 438 kts | 230° |
| 2026-05-07 22:46 | 26.39995 | 63.51609 | 35823 ft | 438 kts | 230° |
| 2026-05-07 22:47 | 26.35691 | 63.46809 | 35828 ft | 438 kts | 230° |
| 2026-05-07 22:47 | 26.31385 | 63.42012 | 35827 ft | 437 kts | 230° |
| 2026-05-07 22:48 | 26.27080 | 63.37219 | 35824 ft | 438 kts | 230° |
| 2026-05-07 22:48 | 26.22764 | 63.32439 | 35827 ft | 437 kts | 230° |
| 2026-05-07 22:49 | 26.18456 | 63.27659 | 35827 ft | 437 kts | 230° |
| 2026-05-07 22:49 | 26.14153 | 63.22879 | 35825 ft | 437 kts | 230° |
| 2026-05-07 22:50 | 26.09854 | 63.18103 | 35818 ft | 437 kts | 230° |
| 2026-05-07 22:50 | 26.05542 | 63.13334 | 35818 ft | 437 kts | 230° |
| 2026-05-07 22:51 | 26.01217 | 63.08567 | 35821 ft | 438 kts | 230° |
| 2026-05-07 22:51 | 25.96888 | 63.03797 | 35820 ft | 438 kts | 229° |
| 2026-05-07 22:52 | 25.92575 | 62.99013 | 35813 ft | 439 kts | 229° |
| 2026-05-07 22:52 | 25.88252 | 62.94223 | 35812 ft | 439 kts | 229° |
| 2026-05-07 22:53 | 25.83920 | 62.89430 | 35815 ft | 440 kts | 229° |
| 2026-05-07 22:53 | 25.79581 | 62.84652 | 35817 ft | 440 kts | 229° |
| 2026-05-07 22:54 | 25.75942 | 62.80649 | 35816 ft | 440 kts | 229° |
| 2026-05-07 22:54 | 25.71600 | 62.75870 | 35816 ft | 440 kts | 229° |
| 2026-05-07 22:55 | 25.67255 | 62.71086 | 35817 ft | 440 kts | 229° |
| 2026-05-07 22:55 | 25.62899 | 62.66298 | 35821 ft | 441 kts | 229° |
| 2026-05-07 22:56 | 25.58574 | 62.61549 | 35824 ft | 441 kts | 229° |
| 2026-05-07 22:56 | 25.54218 | 62.56772 | 35825 ft | 441 kts | 229° |
| 2026-05-07 22:57 | 25.49854 | 62.52001 | 35822 ft | 441 kts | 229° |
| 2026-05-07 22:57 | 25.45489 | 62.47226 | 35823 ft | 441 kts | 229° |
| 2026-05-07 22:58 | 25.41123 | 62.42448 | 35824 ft | 441 kts | 229° |
| 2026-05-07 22:58 | 25.36725 | 62.37649 | 35824 ft | 442 kts | 229° |
| 2026-05-07 22:59 | 25.32349 | 62.32878 | 35827 ft | 442 kts | 229° |
| 2026-05-07 22:59 | 25.28002 | 62.28144 | 35824 ft | 442 kts | 229° |
| 2026-05-07 23:00 | 25.23619 | 62.23382 | 35824 ft | 442 kts | 229° |
| 2026-05-07 23:00 | 25.19239 | 62.18622 | 35827 ft | 441 kts | 228° |
| 2026-05-07 23:01 | 25.14868 | 62.13870 | 35823 ft | 442 kts | 228° |
| 2026-05-07 23:01 | 25.10493 | 62.09120 | 35824 ft | 441 kts | 228° |
| 2026-05-07 23:02 | 25.06113 | 62.04363 | 35821 ft | 442 kts | 228° |
| 2026-05-07 23:02 | 25.01732 | 61.99620 | 35820 ft | 442 kts | 228° |
| 2026-05-07 23:03 | 24.97335 | 61.94877 | 35820 ft | 442 kts | 228° |
| 2026-05-07 23:03 | 24.92943 | 61.90140 | 35819 ft | 442 kts | 228° |
| 2026-05-07 23:04 | 24.88550 | 61.85400 | 35819 ft | 442 kts | 228° |
| 2026-05-07 23:04 | 24.84159 | 61.80648 | 35819 ft | 443 kts | 227° |
| 2026-05-07 23:05 | 24.79749 | 61.75908 | 35820 ft | 443 kts | 227° |
| 2026-05-07 23:05 | 24.75341 | 61.71178 | 35818 ft | 442 kts | 227° |
| 2026-05-07 23:06 | 24.70938 | 61.66446 | 35816 ft | 443 kts | 227° |
| 2026-05-07 23:06 | 24.66525 | 61.61707 | 35815 ft | 444 kts | 227° |
| 2026-05-07 23:07 | 24.62099 | 61.56969 | 35816 ft | 444 kts | 227° |
| 2026-05-07 23:07 | 24.57681 | 61.52236 | 35815 ft | 444 kts | 227° |
| 2026-05-07 23:08 | 24.53261 | 61.47496 | 35819 ft | 444 kts | 227° |
| 2026-05-07 23:08 | 24.48837 | 61.42762 | 35817 ft | 445 kts | 227° |
| 2026-05-07 23:09 | 24.44401 | 61.38027 | 35811 ft | 445 kts | 227° |
| 2026-05-07 23:09 | 24.40348 | 61.32963 | 35806 ft | 439 kts | 241° |
| 2026-05-07 23:10 | 24.37915 | 61.26879 | 35804 ft | 435 kts | 252° |
| 2026-05-07 23:10 | 24.35903 | 61.20625 | 35799 ft | 436 kts | 252° |
| 2026-05-07 23:11 | 24.33861 | 61.14366 | 35796 ft | 436 kts | 252° |
| 2026-05-07 23:11 | 24.31823 | 61.08107 | 35793 ft | 436 kts | 252° |
| 2026-05-07 23:12 | 24.29783 | 61.01837 | 35796 ft | 437 kts | 252° |
| 2026-05-07 23:12 | 24.27748 | 60.95570 | 35793 ft | 437 kts | 252° |
| 2026-05-07 23:13 | 24.25707 | 60.89307 | 35794 ft | 437 kts | 252° |
| 2026-05-07 23:13 | 24.23651 | 60.83045 | 35789 ft | 436 kts | 252° |
| 2026-05-07 23:14 | 24.21600 | 60.76789 | 35797 ft | 436 kts | 252° |
| 2026-05-07 23:14 | 24.19554 | 60.70524 | 35797 ft | 437 kts | 252° |
| 2026-05-07 23:15 | 24.17502 | 60.64264 | 35794 ft | 437 kts | 251° |
| 2026-05-07 23:15 | 24.15435 | 60.58003 | 35769 ft | 437 kts | 251° |
| 2026-05-07 23:16 | 24.13371 | 60.51739 | 35768 ft | 438 kts | 251° |
| 2026-05-07 23:16 | 24.11297 | 60.45457 | 35763 ft | 439 kts | 251° |
| 2026-05-07 23:17 | 24.09234 | 60.39173 | 35755 ft | 439 kts | 251° |
| 2026-05-07 23:17 | 24.07163 | 60.32882 | 35753 ft | 440 kts | 251° |
| 2026-05-07 23:18 | 24.05074 | 60.26583 | 35754 ft | 440 kts | 251° |
| 2026-05-07 23:18 | 24.02973 | 60.20295 | 35751 ft | 441 kts | 251° |
| 2026-05-07 23:19 | 24.00874 | 60.13992 | 35751 ft | 441 kts | 251° |
| 2026-05-07 23:19 | 23.98795 | 60.07729 | 35748 ft | 441 kts | 251° |
| 2026-05-07 23:20 | 23.96700 | 60.01422 | 35750 ft | 441 kts | 251° |
| 2026-05-07 23:20 | 23.94588 | 59.95085 | 35746 ft | 441 kts | 251° |
| 2026-05-07 23:21 | 23.92480 | 59.88785 | 35743 ft | 441 kts | 251° |
| 2026-05-07 23:21 | 23.90383 | 59.82535 | 35740 ft | 441 kts | 251° |
| 2026-05-07 23:22 | 23.88267 | 59.76240 | 35740 ft | 441 kts | 251° |
| 2026-05-07 23:22 | 23.86149 | 59.69949 | 35739 ft | 441 kts | 251° |
| 2026-05-07 23:23 | 23.84017 | 59.63617 | 35734 ft | 441 kts | 251° |
| 2026-05-07 23:23 | 23.81906 | 59.57371 | 35731 ft | 442 kts | 250° |
| 2026-05-07 23:24 | 23.79776 | 59.51084 | 35730 ft | 442 kts | 250° |
| 2026-05-07 23:24 | 23.77590 | 59.44819 | 35730 ft | 442 kts | 249° |
| 2026-05-07 23:25 | 23.75319 | 59.38576 | 35731 ft | 442 kts | 249° |
| 2026-05-07 23:25 | 23.73044 | 59.32341 | 35729 ft | 442 kts | 249° |
| 2026-05-07 23:26 | 23.70785 | 59.26099 | 35727 ft | 442 kts | 249° |
| 2026-05-07 23:26 | 23.68526 | 59.19850 | 35722 ft | 443 kts | 249° |
| 2026-05-07 23:27 | 23.65134 | 59.10477 | 35725 ft | 443 kts | 249° |
| 2026-05-07 23:27 | 23.62867 | 59.04222 | 35727 ft | 443 kts | 249° |
| 2026-05-07 23:28 | 23.60603 | 58.97973 | 35725 ft | 443 kts | 249° |
| 2026-05-07 23:28 | 23.58334 | 58.91734 | 35726 ft | 443 kts | 249° |
| 2026-05-07 23:29 | 23.56057 | 58.85486 | 35723 ft | 443 kts | 249° |
| 2026-05-07 23:29 | 23.53774 | 58.79251 | 35723 ft | 443 kts | 249° |
| 2026-05-07 23:30 | 23.51490 | 58.73015 | 35721 ft | 443 kts | 249° |
| 2026-05-07 23:30 | 23.49215 | 58.66783 | 35720 ft | 443 kts | 249° |
| 2026-05-07 23:31 | 23.46935 | 58.60555 | 35715 ft | 443 kts | 249° |
| 2026-05-07 23:31 | 23.44645 | 58.54328 | 35713 ft | 443 kts | 249° |
| 2026-05-07 23:32 | 23.42352 | 58.48107 | 35711 ft | 442 kts | 249° |
| 2026-05-07 23:32 | 23.40060 | 58.41889 | 35710 ft | 442 kts | 249° |
| 2026-05-07 23:33 | 23.37719 | 58.35698 | 35710 ft | 442 kts | 248° |
| 2026-05-07 23:33 | 23.35349 | 58.29518 | 35712 ft | 442 kts | 248° |
| 2026-05-07 23:34 | 23.32979 | 58.23337 | 35711 ft | 443 kts | 248° |
| 2026-05-07 23:34 | 23.30613 | 58.17144 | 35712 ft | 443 kts | 248° |
| 2026-05-07 23:35 | 23.28237 | 58.10946 | 35713 ft | 444 kts | 248° |
| 2026-05-07 23:35 | 23.25858 | 58.04754 | 35715 ft | 444 kts | 248° |
| 2026-05-07 23:36 | 23.23519 | 57.98544 | 35716 ft | 444 kts | 249° |
| 2026-05-07 23:36 | 23.21719 | 57.93326 | 35716 ft | 444 kts | 250° |
| 2026-05-07 23:37 | 23.19617 | 57.87025 | 35715 ft | 443 kts | 250° |
| 2026-05-07 23:37 | 23.17486 | 57.80735 | 35715 ft | 444 kts | 250° |
| 2026-05-07 23:38 | 23.15317 | 57.74455 | 35718 ft | 444 kts | 250° |
| 2026-05-07 23:38 | 23.13137 | 57.68185 | 35717 ft | 444 kts | 250° |
| 2026-05-07 23:39 | 23.10965 | 57.61913 | 35718 ft | 444 kts | 250° |
| 2026-05-07 23:39 | 23.08787 | 57.55638 | 35720 ft | 444 kts | 250° |
| 2026-05-07 23:40 | 23.06609 | 57.49365 | 35722 ft | 444 kts | 250° |
| 2026-05-07 23:40 | 23.04429 | 57.43093 | 35721 ft | 444 kts | 250° |
| 2026-05-07 23:41 | 23.02243 | 57.36820 | 35724 ft | 444 kts | 250° |
| 2026-05-07 23:41 | 23.00018 | 57.30566 | 35729 ft | 445 kts | 245° |
| 2026-05-07 23:42 | 22.97199 | 57.24595 | 35731 ft | 445 kts | 243° |
| 2026-05-07 23:42 | 22.94353 | 57.18635 | 35734 ft | 445 kts | 243° |
| 2026-05-07 23:43 | 22.91505 | 57.12677 | 35736 ft | 445 kts | 243° |
| 2026-05-07 23:43 | 22.88661 | 57.06712 | 35736 ft | 445 kts | 243° |
| 2026-05-07 23:44 | 22.85812 | 57.00760 | 35737 ft | 445 kts | 243° |
| 2026-05-07 23:44 | 22.82954 | 56.94806 | 35740 ft | 445 kts | 243° |
| 2026-05-07 23:45 | 22.80096 | 56.88848 | 35744 ft | 445 kts | 243° |
| 2026-05-07 23:45 | 22.77242 | 56.82903 | 35747 ft | 445 kts | 243° |
| 2026-05-07 23:46 | 22.74389 | 56.76952 | 35747 ft | 445 kts | 243° |
| 2026-05-07 23:46 | 22.71533 | 56.71012 | 35748 ft | 445 kts | 243° |
| 2026-05-07 23:47 | 22.68665 | 56.65073 | 35746 ft | 445 kts | 243° |
| 2026-05-07 23:47 | 22.65798 | 56.59146 | 35747 ft | 445 kts | 243° |
| 2026-05-07 23:48 | 22.62935 | 56.53216 | 35788 ft | 444 kts | 243° |
| 2026-05-07 23:48 | 22.60079 | 56.47297 | 35799 ft | 444 kts | 243° |
| 2026-05-07 23:49 | 22.57215 | 56.41375 | 35805 ft | 444 kts | 243° |
| 2026-05-07 23:49 | 22.54347 | 56.35451 | 35810 ft | 444 kts | 243° |
| 2026-05-07 23:50 | 22.51477 | 56.29530 | 35812 ft | 444 kts | 243° |
| 2026-05-07 23:50 | 22.48613 | 56.23607 | 35814 ft | 444 kts | 243° |
| 2026-05-07 23:51 | 22.45744 | 56.17691 | 35814 ft | 444 kts | 242° |
| 2026-05-07 23:51 | 22.42873 | 56.11777 | 35813 ft | 444 kts | 242° |
| 2026-05-07 23:52 | 22.39999 | 56.05871 | 35815 ft | 444 kts | 242° |
| 2026-05-07 23:52 | 22.37106 | 55.99970 | 35815 ft | 445 kts | 242° |
| 2026-05-07 23:53 | 22.34211 | 55.94068 | 35819 ft | 445 kts | 242° |
| 2026-05-07 23:53 | 22.31309 | 55.88173 | 35818 ft | 445 kts | 242° |
| 2026-05-07 23:54 | 22.28402 | 55.82275 | 35818 ft | 445 kts | 242° |
| 2026-05-07 23:54 | 22.25500 | 55.76379 | 35821 ft | 445 kts | 242° |
| 2026-05-07 23:55 | 22.22606 | 55.70475 | 35821 ft | 445 kts | 242° |
| 2026-05-07 23:55 | 22.19709 | 55.64569 | 35826 ft | 445 kts | 242° |
| 2026-05-07 23:56 | 22.16813 | 55.58679 | 35824 ft | 444 kts | 242° |
| 2026-05-07 23:56 | 22.13975 | 55.52757 | 35834 ft | 444 kts | 244° |
| 2026-05-07 23:57 | 22.11347 | 55.46733 | 35842 ft | 444 kts | 245° |
| 2026-05-07 23:57 | 22.08765 | 55.40687 | 35839 ft | 444 kts | 245° |
| 2026-05-07 23:58 | 22.06137 | 55.34661 | 35842 ft | 444 kts | 244° |
| 2026-05-07 23:58 | 22.03455 | 55.28622 | 35851 ft | 443 kts | 244° |
| 2026-05-07 23:59 | 22.00785 | 55.22641 | 35853 ft | 443 kts | 244° |
| 2026-05-07 23:59 | 21.98122 | 55.16644 | 35844 ft | 444 kts | 244° |
| 2026-05-08 00:00 | 21.95469 | 55.10645 | 35842 ft | 444 kts | 244° |
| 2026-05-08 00:00 | 21.92802 | 55.04644 | 35844 ft | 444 kts | 244° |
| 2026-05-08 00:01 | 21.90123 | 54.98637 | 35843 ft | 445 kts | 244° |
| 2026-05-08 00:01 | 21.87456 | 54.92630 | 35842 ft | 445 kts | 244° |
| 2026-05-08 00:02 | 21.84782 | 54.86627 | 35838 ft | 445 kts | 244° |
| 2026-05-08 00:02 | 21.82100 | 54.80629 | 35840 ft | 445 kts | 244° |
| 2026-05-08 00:03 | 21.79431 | 54.74647 | 35838 ft | 444 kts | 244° |
| 2026-05-08 00:03 | 21.76748 | 54.68660 | 35841 ft | 444 kts | 244° |
| 2026-05-08 00:04 | 21.74064 | 54.62683 | 35838 ft | 444 kts | 244° |
| 2026-05-08 00:04 | 21.71382 | 54.56703 | 35835 ft | 444 kts | 244° |
| 2026-05-08 00:05 | 21.68706 | 54.50727 | 35827 ft | 443 kts | 244° |
| 2026-05-08 00:05 | 21.66029 | 54.44760 | 35828 ft | 443 kts | 244° |
| 2026-05-08 00:06 | 21.63341 | 54.38798 | 35826 ft | 443 kts | 244° |
| 2026-05-08 00:06 | 21.60652 | 54.32838 | 35822 ft | 443 kts | 243° |
| 2026-05-08 00:07 | 21.57968 | 54.26882 | 35826 ft | 443 kts | 243° |
| 2026-05-08 00:07 | 21.55280 | 54.20928 | 35834 ft | 443 kts | 244° |
| 2026-05-08 00:08 | 21.52592 | 54.14985 | 35834 ft | 443 kts | 243° |
| 2026-05-08 00:08 | 21.49904 | 54.09042 | 35827 ft | 442 kts | 243° |
| 2026-05-08 00:09 | 21.47204 | 54.03092 | 35810 ft | 444 kts | 243° |
| 2026-05-08 00:09 | 21.44497 | 53.97126 | 35803 ft | 445 kts | 243° |
| 2026-05-08 00:10 | 21.41789 | 53.91154 | 35803 ft | 445 kts | 243° |
| 2026-05-08 00:10 | 21.39071 | 53.85178 | 35805 ft | 446 kts | 243° |
| 2026-05-08 00:11 | 21.36348 | 53.79188 | 35807 ft | 447 kts | 243° |
| 2026-05-08 00:11 | 21.33623 | 53.73201 | 35810 ft | 447 kts | 243° |
| 2026-05-08 00:12 | 21.30887 | 53.67217 | 35813 ft | 447 kts | 243° |
| 2026-05-08 00:12 | 21.28150 | 53.61226 | 35817 ft | 447 kts | 243° |
| 2026-05-08 00:13 | 21.25415 | 53.55232 | 35825 ft | 447 kts | 243° |
| 2026-05-08 00:13 | 21.22670 | 53.49247 | 35826 ft | 448 kts | 243° |
| 2026-05-08 00:14 | 21.19920 | 53.43257 | 35831 ft | 448 kts | 243° |
| 2026-05-08 00:14 | 21.17179 | 53.37269 | 35833 ft | 448 kts | 243° |
| 2026-05-08 00:15 | 21.14426 | 53.31275 | 35834 ft | 448 kts | 243° |
| 2026-05-08 00:15 | 21.11667 | 53.25293 | 35836 ft | 448 kts | 243° |
| 2026-05-08 00:16 | 21.09355 | 53.20281 | 35837 ft | 448 kts | 243° |
| 2026-05-08 00:16 | 21.06601 | 53.14293 | 35839 ft | 448 kts | 243° |
| 2026-05-08 00:17 | 21.03843 | 53.08300 | 35839 ft | 449 kts | 243° |
| 2026-05-08 00:17 | 21.01183 | 53.02307 | 35838 ft | 450 kts | 249° |
| 2026-05-08 00:18 | 21.00027 | 52.95700 | 35840 ft | 452 kts | 268° |
| 2026-05-08 00:18 | 21.00087 | 52.88966 | 35840 ft | 453 kts | 269° |
| 2026-05-08 00:19 | 21.00113 | 52.82219 | 35840 ft | 453 kts | 268° |
| 2026-05-08 00:19 | 21.00136 | 52.75523 | 35840 ft | 453 kts | 269° |
| 2026-05-08 00:20 | 21.00166 | 52.68777 | 35843 ft | 454 kts | 268° |
| 2026-05-08 00:20 | 21.00191 | 52.62032 | 35843 ft | 453 kts | 268° |
| 2026-05-08 00:21 | 21.00212 | 52.55283 | 35842 ft | 453 kts | 268° |
| 2026-05-08 00:21 | 21.00239 | 52.48540 | 35840 ft | 453 kts | 268° |
| 2026-05-08 00:22 | 21.00262 | 52.41798 | 35839 ft | 453 kts | 268° |
| 2026-05-08 00:22 | 21.00269 | 52.35060 | 35839 ft | 453 kts | 268° |
| 2026-05-08 00:23 | 21.00280 | 52.28312 | 35841 ft | 453 kts | 268° |
| 2026-05-08 00:23 | 21.00282 | 52.21569 | 35842 ft | 453 kts | 268° |
| 2026-05-08 00:24 | 21.00293 | 52.14818 | 35847 ft | 454 kts | 268° |
| 2026-05-08 00:24 | 21.00307 | 52.08064 | 35849 ft | 454 kts | 268° |
| 2026-05-08 00:25 | 21.00309 | 52.01310 | 35850 ft | 454 kts | 268° |
| 2026-05-08 00:25 | 21.00304 | 51.94565 | 35852 ft | 453 kts | 268° |
| 2026-05-08 00:26 | 21.00290 | 51.87819 | 35852 ft | 453 kts | 268° |
| 2026-05-08 00:26 | 21.00289 | 51.81070 | 35852 ft | 453 kts | 268° |
| 2026-05-08 00:27 | 21.00287 | 51.74333 | 35849 ft | 453 kts | 268° |
| 2026-05-08 00:27 | 21.00273 | 51.67601 | 35852 ft | 452 kts | 268° |
| 2026-05-08 00:28 | 21.00257 | 51.60870 | 35841 ft | 452 kts | 268° |
| 2026-05-08 00:28 | 21.00243 | 51.54144 | 35845 ft | 452 kts | 268° |
| 2026-05-08 00:29 | 21.00222 | 51.47427 | 35842 ft | 452 kts | 268° |
| 2026-05-08 00:29 | 21.00195 | 51.40700 | 35840 ft | 452 kts | 268° |
| 2026-05-08 00:30 | 21.00170 | 51.33973 | 35841 ft | 452 kts | 268° |
| 2026-05-08 00:30 | 21.00145 | 51.27253 | 35844 ft | 452 kts | 268° |
| 2026-05-08 00:31 | 21.00120 | 51.20524 | 35860 ft | 452 kts | 268° |
| 2026-05-08 00:31 | 21.00101 | 51.13795 | 35868 ft | 453 kts | 270° |
| 2026-05-08 00:32 | 21.00606 | 51.10471 | 35858 ft | 456 kts | 286° |
| 2026-05-08 00:32 | 21.01973 | 51.07399 | 35858 ft | 460 kts | 303° |
| 2026-05-08 00:32 | 21.04112 | 51.04855 | 35856 ft | 464 kts | 320° |
| 2026-05-08 00:32 | 21.06872 | 51.03061 | 35850 ft | 467 kts | 337° |
| 2026-05-08 00:33 | 21.10009 | 51.02186 | 35838 ft | 469 kts | 354° |
| 2026-05-08 00:33 | 21.13271 | 51.02294 | 35841 ft | 470 kts | 8° |
| 2026-05-08 00:33 | 21.19750 | 51.03404 | 35837 ft | 473 kts | 8° |
| 2026-05-08 00:34 | 21.26252 | 51.04558 | 35837 ft | 474 kts | 8° |
| 2026-05-08 00:34 | 21.32771 | 51.05708 | 35842 ft | 476 kts | 8° |
| 2026-05-08 00:35 | 21.39313 | 51.06851 | 35850 ft | 477 kts | 8° |
| 2026-05-08 00:35 | 21.45866 | 51.08001 | 35859 ft | 478 kts | 8° |
| 2026-05-08 00:36 | 21.52424 | 51.09147 | 35863 ft | 477 kts | 8° |
| 2026-05-08 00:36 | 21.58983 | 51.10293 | 35863 ft | 477 kts | 8° |
| 2026-05-08 00:37 | 21.65542 | 51.11440 | 35875 ft | 477 kts | 8° |
| 2026-05-08 00:38 | 21.75382 | 51.13180 | 35871 ft | 478 kts | 8° |
| 2026-05-08 00:38 | 21.81942 | 51.14333 | 35865 ft | 478 kts | 8° |
| 2026-05-08 00:39 | 21.88503 | 51.15489 | 35860 ft | 478 kts | 8° |
| 2026-05-08 00:39 | 21.95069 | 51.16639 | 35860 ft | 478 kts | 8° |
| 2026-05-08 00:40 | 22.01636 | 51.17797 | 35865 ft | 478 kts | 8° |
| 2026-05-08 00:40 | 22.08201 | 51.18960 | 35872 ft | 479 kts | 8° |
| 2026-05-08 00:41 | 22.14779 | 51.20119 | 35870 ft | 479 kts | 8° |
| 2026-05-08 00:41 | 22.21364 | 51.21282 | 35859 ft | 480 kts | 8° |
| 2026-05-08 00:42 | 22.27953 | 51.22452 | 35862 ft | 480 kts | 8° |
| 2026-05-08 00:42 | 22.34544 | 51.23618 | 35871 ft | 480 kts | 8° |
| 2026-05-08 00:43 | 22.41136 | 51.24785 | 35877 ft | 480 kts | 8° |
| 2026-05-08 00:43 | 22.47729 | 51.25961 | 35878 ft | 480 kts | 8° |
| 2026-05-08 00:44 | 22.54327 | 51.27126 | 35866 ft | 480 kts | 8° |
| 2026-05-08 00:44 | 22.60926 | 51.28293 | 35879 ft | 480 kts | 8° |
| 2026-05-08 00:45 | 22.67524 | 51.29482 | 35874 ft | 481 kts | 8° |
| 2026-05-08 00:45 | 22.74125 | 51.30664 | 35865 ft | 481 kts | 7° |
| 2026-05-08 00:46 | 22.80729 | 51.31838 | 35867 ft | 481 kts | 7° |
| 2026-05-08 00:46 | 22.87337 | 51.33021 | 35854 ft | 481 kts | 7° |
| 2026-05-08 00:47 | 22.93949 | 51.34209 | 35846 ft | 482 kts | 7° |
| 2026-05-08 00:47 | 23.00565 | 51.35398 | 35840 ft | 482 kts | 7° |
| 2026-05-08 00:48 | 23.07183 | 51.36580 | 35838 ft | 482 kts | 7° |
| 2026-05-08 00:48 | 23.13813 | 51.37755 | 35835 ft | 483 kts | 7° |
| 2026-05-08 00:49 | 23.20441 | 51.38953 | 35835 ft | 483 kts | 7° |
| 2026-05-08 00:49 | 23.27070 | 51.40154 | 35833 ft | 483 kts | 7° |
| 2026-05-08 00:50 | 23.33696 | 51.41348 | 35834 ft | 483 kts | 7° |
| 2026-05-08 00:50 | 23.40334 | 51.42538 | 35835 ft | 483 kts | 7° |
| 2026-05-08 00:51 | 23.46973 | 51.43738 | 35838 ft | 484 kts | 7° |
| 2026-05-08 00:51 | 23.53619 | 51.44944 | 35837 ft | 484 kts | 7° |
| 2026-05-08 00:52 | 23.60266 | 51.46145 | 35841 ft | 484 kts | 7° |
| 2026-05-08 00:52 | 23.66910 | 51.47346 | 35840 ft | 484 kts | 7° |
| 2026-05-08 00:53 | 23.73554 | 51.48535 | 35842 ft | 484 kts | 7° |
| 2026-05-08 00:53 | 23.80198 | 51.49734 | 35841 ft | 484 kts | 7° |
| 2026-05-08 00:54 | 23.86836 | 51.50943 | 35840 ft | 484 kts | 7° |
| 2026-05-08 00:54 | 23.93476 | 51.52152 | 35839 ft | 484 kts | 7° |
| 2026-05-08 00:55 | 24.00116 | 51.53356 | 35838 ft | 484 kts | 7° |
| 2026-05-08 00:55 | 24.06759 | 51.54569 | 35841 ft | 484 kts | 7° |
| 2026-05-08 00:56 | 24.13400 | 51.55778 | 35592 ft | 483 kts | 7° |
| 2026-05-08 00:56 | 24.16747 | 51.56386 | 34466 ft | 493 kts | 7° |
| 2026-05-08 00:56 | 24.20158 | 51.57007 | 33440 ft | 499 kts | 7° |
| 2026-05-08 00:56 | 24.23588 | 51.57631 | 32666 ft | 498 kts | 7° |
| 2026-05-08 00:57 | 24.26989 | 51.58253 | 32090 ft | 493 kts | 7° |
| 2026-05-08 00:57 | 24.29272 | 51.58663 | 31667 ft | 490 kts | 5° |
| 2026-05-08 00:57 | 24.32639 | 51.58898 | 31071 ft | 483 kts | 355° |
| 2026-05-08 00:57 | 24.35951 | 51.58562 | 30509 ft | 474 kts | 347° |
| 2026-05-08 00:58 | 24.39184 | 51.57924 | 29962 ft | 470 kts | 347° |
| 2026-05-08 00:58 | 24.42388 | 51.57291 | 29419 ft | 466 kts | 347° |
| 2026-05-08 00:58 | 24.45560 | 51.56667 | 28880 ft | 462 kts | 347° |
| 2026-05-08 00:58 | 24.48707 | 51.56051 | 28335 ft | 457 kts | 347° |
| 2026-05-08 00:59 | 24.51825 | 51.55442 | 27812 ft | 452 kts | 347° |
| 2026-05-08 00:59 | 24.54904 | 51.54843 | 27304 ft | 447 kts | 347° |
| 2026-05-08 00:59 | 24.57954 | 51.54247 | 26805 ft | 443 kts | 347° |
| 2026-05-08 00:59 | 24.60978 | 51.53652 | 26317 ft | 439 kts | 347° |
| 2026-05-08 01:00 | 24.63959 | 51.53028 | 25849 ft | 433 kts | 343° |
| 2026-05-08 01:00 | 24.66776 | 51.51948 | 25390 ft | 426 kts | 332° |
| 2026-05-08 01:00 | 24.69311 | 51.50329 | 24940 ft | 419 kts | 321° |
| 2026-05-08 01:00 | 24.71492 | 51.48244 | 24515 ft | 412 kts | 310° |
| 2026-05-08 01:01 | 24.73350 | 51.45870 | 24089 ft | 409 kts | 308° |
| 2026-05-08 01:01 | 24.75182 | 51.43480 | 23630 ft | 407 kts | 308° |
| 2026-05-08 01:01 | 24.77007 | 51.41104 | 23193 ft | 406 kts | 308° |
| 2026-05-08 01:01 | 24.78831 | 51.38733 | 22726 ft | 405 kts | 308° |
| 2026-05-08 01:02 | 24.80646 | 51.36377 | 22273 ft | 403 kts | 308° |
| 2026-05-08 01:02 | 24.82454 | 51.34026 | 21804 ft | 401 kts | 308° |
| 2026-05-08 01:02 | 24.84249 | 51.31691 | 21324 ft | 399 kts | 308° |
| 2026-05-08 01:02 | 24.86037 | 51.29364 | 20845 ft | 396 kts | 309° |
| 2026-05-08 01:03 | 24.88025 | 51.27271 | 20343 ft | 397 kts | 321° |
| 2026-05-08 01:03 | 24.90359 | 51.25647 | 19799 ft | 397 kts | 333° |
| 2026-05-08 01:03 | 24.92866 | 51.24376 | 19248 ft | 397 kts | 334° |
| 2026-05-08 01:03 | 24.95373 | 51.23115 | 18693 ft | 395 kts | 334° |
| 2026-05-08 01:04 | 24.97863 | 51.21858 | 18144 ft | 393 kts | 335° |
| 2026-05-08 01:04 | 25.00344 | 51.20601 | 17588 ft | 392 kts | 335° |
| 2026-05-08 01:04 | 25.02814 | 51.19348 | 17036 ft | 390 kts | 335° |
| 2026-05-08 01:04 | 25.05266 | 51.18099 | 16485 ft | 387 kts | 334° |
| 2026-05-08 01:05 | 25.07703 | 51.16855 | 15936 ft | 385 kts | 335° |
| 2026-05-08 01:05 | 25.10128 | 51.15618 | 15386 ft | 383 kts | 335° |
| 2026-05-08 01:05 | 25.12537 | 51.14389 | 14906 ft | 379 kts | 335° |
| 2026-05-08 01:05 | 25.14905 | 51.13185 | 14487 ft | 372 kts | 335° |
| 2026-05-08 01:06 | 25.17253 | 51.11991 | 13963 ft | 370 kts | 335° |
| 2026-05-08 01:06 | 25.19709 | 51.11205 | 13420 ft | 368 kts | 355° |
| 2026-05-08 01:06 | 25.22225 | 51.11471 | 12897 ft | 364 kts | 18° |
| 2026-05-08 01:06 | 25.24445 | 51.12738 | 12361 ft | 358 kts | 40° |
| 2026-05-08 01:07 | 25.26057 | 51.14787 | 11797 ft | 351 kts | 62° |
| 2026-05-08 01:07 | 25.26874 | 51.17253 | 11156 ft | 337 kts | 82° |
| 2026-05-08 01:07 | 25.26989 | 51.19784 | 10592 ft | 324 kts | 90° |
| 2026-05-08 01:07 | 25.27014 | 51.22230 | 10122 ft | 312 kts | 90° |
| 2026-05-08 01:08 | 25.27033 | 51.24576 | 9779 ft | 298 kts | 92° |
| 2026-05-08 01:08 | 25.26758 | 51.26841 | 9913 ft | 303 kts | 103° |
| 2026-05-08 01:08 | 25.26296 | 51.29082 | 9523 ft | 304 kts | 104° |
| 2026-05-08 01:08 | 25.25815 | 51.31341 | 9195 ft | 302 kts | 104° |
| 2026-05-08 01:09 | 25.25330 | 51.33586 | 8875 ft | 299 kts | 104° |
| 2026-05-08 01:09 | 25.24848 | 51.35812 | 8550 ft | 298 kts | 104° |
| 2026-05-08 01:09 | 25.24368 | 51.38035 | 8242 ft | 297 kts | 103° |
| 2026-05-08 01:09 | 25.23893 | 51.40249 | 7932 ft | 296 kts | 103° |
| 2026-05-08 01:10 | 25.23419 | 51.42453 | 7621 ft | 294 kts | 103° |
| 2026-05-08 01:10 | 25.22947 | 51.44643 | 7313 ft | 293 kts | 104° |
| 2026-05-08 01:10 | 25.22209 | 51.46727 | 6996 ft | 292 kts | 121° |
| 2026-05-08 01:10 | 25.20934 | 51.48444 | 6688 ft | 290 kts | 140° |
| 2026-05-08 01:11 | 25.19242 | 51.49631 | 6382 ft | 288 kts | 157° |
| 2026-05-08 01:11 | 25.17382 | 51.50445 | 6069 ft | 288 kts | 159° |
| 2026-05-08 01:11 | 25.15522 | 51.51259 | 5767 ft | 288 kts | 159° |
| 2026-05-08 01:11 | 25.13668 | 51.52075 | 5462 ft | 286 kts | 159° |
| 2026-05-08 01:12 | 25.11817 | 51.52891 | 5157 ft | 286 kts | 159° |
| 2026-05-08 01:12 | 25.09977 | 51.53704 | 4857 ft | 285 kts | 158° |
| 2026-05-08 01:12 | 25.08136 | 51.54519 | 4565 ft | 284 kts | 159° |
| 2026-05-08 01:12 | 25.06305 | 51.55330 | 4270 ft | 283 kts | 158° |
| 2026-05-08 01:13 | 25.04475 | 51.56136 | 3954 ft | 283 kts | 158° |
| 2026-05-08 01:13 | 25.02657 | 51.56932 | 3745 ft | 278 kts | 158° |
| 2026-05-08 01:13 | 25.00911 | 51.57755 | 3615 ft | 267 kts | 148° |
| 2026-05-08 01:13 | 24.99675 | 51.59178 | 3510 ft | 253 kts | 113° |
| 2026-05-08 01:14 | 24.99382 | 51.61016 | 3508 ft | 243 kts | 80° |
| 2026-05-08 01:14 | 24.99974 | 51.62722 | 3511 ft | 240 kts | 57° |
| 2026-05-08 01:14 | 25.00724 | 51.64366 | 3510 ft | 241 kts | 65° |
| 2026-05-08 01:14 | 25.01339 | 51.66096 | 3511 ft | 242 kts | 68° |
| 2026-05-08 01:15 | 25.01931 | 51.67830 | 3507 ft | 238 kts | 62° |
| 2026-05-08 01:15 | 25.02925 | 51.69152 | 3503 ft | 216 kts | 30° |
| 2026-05-08 01:15 | 25.04271 | 51.69628 | 3503 ft | 196 kts | 359° |
| 2026-05-08 01:15 | 25.05572 | 51.69328 | 3508 ft | 190 kts | 338° |
| 2026-05-08 01:16 | 25.06800 | 51.68785 | 3511 ft | 191 kts | 338° |
| 2026-05-08 01:16 | 25.07984 | 51.68263 | 3532 ft | 174 kts | 338° |
| 2026-05-08 01:16 | 25.09080 | 51.67781 | 3400 ft | 165 kts | 338° |
| 2026-05-08 01:16 | 25.10128 | 51.67320 | 3213 ft | 160 kts | 338° |
| 2026-05-08 01:17 | 25.11147 | 51.66873 | 3029 ft | 152 kts | 338° |
| 2026-05-08 01:17 | 25.12086 | 51.66460 | 2842 ft | 141 kts | 338° |
| 2026-05-08 01:17 | 25.12983 | 51.66067 | 2664 ft | 136 kts | 338° |
| 2026-05-08 01:17 | 25.13856 | 51.65683 | 2479 ft | 134 kts | 338° |
| 2026-05-08 01:18 | 25.14719 | 51.65303 | 2304 ft | 133 kts | 339° |
| 2026-05-08 01:18 | 25.15577 | 51.64926 | 2132 ft | 133 kts | 339° |
| 2026-05-08 01:18 | 25.16434 | 51.64549 | 1951 ft | 132 kts | 339° |
| 2026-05-08 01:18 | 25.17285 | 51.64175 | 1775 ft | 131 kts | 339° |
| 2026-05-08 01:19 | 25.18128 | 51.63804 | 1601 ft | 130 kts | 339° |
| 2026-05-08 01:19 | 25.18964 | 51.63436 | 1427 ft | 129 kts | 339° |
| 2026-05-08 01:19 | 25.19797 | 51.63070 | 1262 ft | 129 kts | 339° |
| 2026-05-08 01:19 | 25.20631 | 51.62706 | 1086 ft | 129 kts | 339° |
| 2026-05-08 01:20 | 25.21468 | 51.62349 | 921 ft | 128 kts | 340° |
| 2026-05-08 01:20 | 25.22292 | 51.61978 | 732 ft | 128 kts | 338° |
| 2026-05-08 01:20 | 25.23112 | 51.61603 | 547 ft | 127 kts | 339° |
| 2026-05-08 01:20 | 25.23942 | 51.61243 | 388 ft | 129 kts | 339° |
| 2026-05-08 01:21 | 25.24771 | 51.60876 | 233 ft | 129 kts | 339° |
| 2026-05-08 01:21 | 25.25608 | 51.60504 | 59 ft | 130 kts | 339° |
| 2026-05-08 01:21 | 25.26381 | 51.60169 | 28 ft | 102 kts | 339° |
| 2026-05-08 01:21 | 25.26882 | 51.59947 | 25 ft | 53 kts | 339° |
| 2026-05-08 01:22 | 25.27127 | 51.59846 | 27 ft | 26 kts | 340° |
| 2026-05-08 01:22 | 25.27288 | 51.59821 | 28 ft | 23 kts | 1° |
| 2026-05-08 01:22 | 25.27406 | 51.59840 | 28 ft | 8 kts | 31° |
| 2026-05-08 01:22 | 25.27423 | 51.59893 | 29 ft | 8 kts | 99° |
| 2026-05-08 01:23 | 25.27375 | 51.59936 | 29 ft | 10 kts | 155° |
| 2026-05-08 01:23 | 25.27299 | 51.59970 | 29 ft | 13 kts | 159° |
| 2026-05-08 01:23 | 25.27206 | 51.60011 | 29 ft | 16 kts | 157° |
| 2026-05-08 01:23 | 25.27094 | 51.60060 | 28 ft | 19 kts | 159° |
| 2026-05-08 01:24 | 25.26961 | 51.60117 | 28 ft | 22 kts | 158° |
| 2026-05-08 01:24 | 25.26812 | 51.60185 | 28 ft | 25 kts | 157° |
| 2026-05-08 01:24 | 25.26661 | 51.60250 | 28 ft | 21 kts | 158° |
| 2026-05-08 01:24 | 25.26516 | 51.60315 | 29 ft | 24 kts | 159° |
| 2026-05-08 01:25 | 25.26378 | 51.60375 | 29 ft | 19 kts | 158° |
| 2026-05-08 01:25 | 25.26257 | 51.60428 | 30 ft | 18 kts | 158° |
| 2026-05-08 01:25 | 25.26157 | 51.60474 | 29 ft | 12 kts | 150° |
| 2026-05-08 01:25 | 25.26136 | 51.60545 | 30 ft | 10 kts | 84° |
| 2026-05-08 01:26 | 25.26102 | 51.60609 | 30 ft | 10 kts | 135° |
| 2026-05-08 01:26 | 25.26094 | 51.60683 | 30 ft | 10 kts | 68° |
| 2026-05-08 01:26 | 25.26095 | 51.60758 | 30 ft | 10 kts | 112° |
| 2026-05-08 01:26 | 25.26056 | 51.60820 | 30 ft | 9 kts | 128° |
| 2026-05-08 01:27 | 25.26039 | 51.60843 | 30 ft | 1 kts | 128° |
| 2026-05-08 01:27 | 25.26034 | 51.60851 | 30 ft | 2 kts | 128° |
| 2026-05-08 01:27 | 25.26031 | 51.60855 | 30 ft | 0 kts | 128° |